Observations for YEOVILTON NAVY, United Kingdom (EGDY)

EGDY 200550Z AUTO 22001KT 8000 BR NCD 05/05 Q1031   
EGDY 200450Z AUTO 09001KT 7000 BR NCD 05/05 Q1031   
EGDY 200350Z AUTO 09002KT 9999 NCD 05/04 Q1030  
EGDY 200250Z AUTO 28002KT 5000 HZ NCD 06/05 Q1031   
EGDY 200150Z AUTO 10002KT 9000 HZ NCD 07/06 Q1030   
EGDY 200050Z AUTO 27003KT 8000 HZ NCD 08/07 Q1030   
EGDY 192350Z AUTO 29003KT 9999 NCD 10/08 Q1030  
EGDY 192250Z AUTO 04003KT 9999 NCD 12/08 Q1030  
EGDY 192150Z AUTO 30001KT 9999 NCD 12/08 Q1030  
EGDY 192050Z AUTO 00000KT 9999 NCD 14/08 Q1030  
EGDY 191950Z AUTO 36004KT 9999 NCD 17/09 Q1029  
EGDY 191850Z AUTO 02005KT 9999 NCD 17/09 Q1029  
EGDY 191750Z AUTO 04006KT 9999 NCD 20/11 Q1028  
EGDY 191650Z AUTO 04007KT 9999 NCD 22/08 Q1028  
EGDY 191550Z AUTO 08008KT 9999 NCD 23/07 Q1027  
EGDY 191450Z AUTO 08005KT 9999 NCD 23/06 Q1027  
EGDY 191350Z AUTO 02004KT 9999 NCD 22/10 Q1028  
EGDY 191250Z AUTO 03006KT 9999 NCD 20/11 Q1028  
EGDY 191150Z AUTO 03006KT 9999 NCD 19/09 Q1028  
EGDY 191050Z AUTO 03007KT 9999 NCD 18/10 Q1028  
EGDY 190950Z AUTO 02006KT 9999 NCD 17/10 Q1028  
EGDY 190850Z AUTO 03006KT 9999 NCD 14/09 Q1028  
EGDY 190750Z AUTO 03004KT 9999 NCD 12/08 Q1027  
EGDY 190650Z AUTO 34003KT 8000 HZ NCD 10/06 Q1027   
EGDY 190550Z AUTO 34002KT 8000 HZ NCD 08/05 Q1026